sensor_id;sensor_type;location;lat;lon;timestamp;temperature;humidity
21646;DHT22;10984;45.712;4.800;2023-07-29T00:02:17;22.90;1.00
21646;DHT22;10984;45.712;4.800;2023-07-29T00:04:42;22.90;1.00
21646;DHT22;10984;45.712;4.800;2023-07-29T00:07:08;22.90;1.00
21646;DHT22;10984;45.712;4.800;2023-07-29T00:09:34;22.90;1.00
21646;DHT22;10984;45.712;4.800;2023-07-29T00:11:59;23.00;1.00
21646;DHT22;10984;45.712;4.800;2023-07-29T00:14:25;22.90;1.00
21646;DHT22;10984;45.712;4.800;2023-07-29T00:16:50;22.90;1.00
21646;DHT22;10984;45.712;4.800;2023-07-29T00:19:16;22.90;1.00
21646;DHT22;10984;45.712;4.800;2023-07-29T00:21:42;22.80;1.00
21646;DHT22;10984;45.712;4.800;2023-07-29T00:24:07;22.80;1.00
21646;DHT22;10984;45.712;4.800;2023-07-29T00:26:33;22.80;1.00
21646;DHT22;10984;45.712;4.800;2023-07-29T00:28:58;22.70;1.00
21646;DHT22;10984;45.712;4.800;2023-07-29T00:31:24;22.70;1.00
21646;DHT22;10984;45.712;4.800;2023-07-29T00:33:50;22.60;1.00
21646;DHT22;10984;45.712;4.800;2023-07-29T00:36:16;22.60;1.00
21646;DHT22;10984;45.712;4.800;2023-07-29T00:38:41;22.50;1.00
21646;DHT22;10984;45.712;4.800;2023-07-29T00:41:07;22.50;1.00
21646;DHT22;10984;45.712;4.800;2023-07-29T00:43:33;22.40;1.00
21646;DHT22;10984;45.712;4.800;2023-07-29T00:46:00;22.50;1.00
21646;DHT22;10984;45.712;4.800;2023-07-29T00:48:26;22.40;1.00
21646;DHT22;10984;45.712;4.800;2023-07-29T00:50:52;22.40;1.00
21646;DHT22;10984;45.712;4.800;2023-07-29T00:53:18;22.30;1.00
21646;DHT22;10984;45.712;4.800;2023-07-29T00:55:43;22.20;1.00
21646;DHT22;10984;45.712;4.800;2023-07-29T00:58:10;22.20;1.00
21646;DHT22;10984;45.712;4.800;2023-07-29T01:00:36;22.20;1.00
21646;DHT22;10984;45.712;4.800;2023-07-29T01:03:02;22.20;1.00
21646;DHT22;10984;45.712;4.800;2023-07-29T01:05:32;22.10;1.00
21646;DHT22;10984;45.712;4.800;2023-07-29T01:17:13;22.20;1.00
21646;DHT22;10984;45.712;4.800;2023-07-29T01:22:04;22.20;1.00
21646;DHT22;10984;45.712;4.800;2023-07-29T01:24:32;22.20;1.00
21646;DHT22;10984;45.712;4.800;2023-07-29T01:26:58;22.20;1.00
21646;DHT22;10984;45.712;4.800;2023-07-29T01:29:24;22.20;1.00
21646;DHT22;10984;45.712;4.800;2023-07-29T01:31:54;22.10;1.00
21646;DHT22;10984;45.712;4.800;2023-07-29T01:37:27;22.00;1.00
21646;DHT22;10984;45.712;4.800;2023-07-29T01:39:57;22.00;1.00
21646;DHT22;10984;45.712;4.800;2023-07-29T01:42:24;22.00;1.00
21646;DHT22;10984;45.712;4.800;2023-07-29T01:44:50;22.00;1.00
21646;DHT22;10984;45.712;4.800;2023-07-29T01:47:16;22.00;1.00
21646;DHT22;10984;45.712;4.800;2023-07-29T01:49:42;21.90;1.00
21646;DHT22;10984;45.712;4.800;2023-07-29T01:52:08;21.90;1.00
21646;DHT22;10984;45.712;4.800;2023-07-29T01:54:33;21.90;1.00
21646;DHT22;10984;45.712;4.800;2023-07-29T01:56:59;21.90;1.00
21646;DHT22;10984;45.712;4.800;2023-07-29T01:59:24;21.90;1.00
21646;DHT22;10984;45.712;4.800;2023-07-29T02:01:50;21.80;1.00
21646;DHT22;10984;45.712;4.800;2023-07-29T02:04:16;21.80;1.00
21646;DHT22;10984;45.712;4.800;2023-07-29T02:06:41;21.80;1.00
21646;DHT22;10984;45.712;4.800;2023-07-29T02:09:07;21.80;1.00
21646;DHT22;10984;45.712;4.800;2023-07-29T02:11:33;21.80;1.00
21646;DHT22;10984;45.712;4.800;2023-07-29T02:13:58;21.70;1.00
21646;DHT22;10984;45.712;4.800;2023-07-29T02:16:24;21.70;1.00
21646;DHT22;10984;45.712;4.800;2023-07-29T02:18:50;21.70;1.00
21646;DHT22;10984;45.712;4.800;2023-07-29T02:21:16;21.60;1.00
21646;DHT22;10984;45.712;4.800;2023-07-29T02:23:42;21.60;1.40
21646;DHT22;10984;45.712;4.800;2023-07-29T02:26:07;21.60;3.10
21646;DHT22;10984;45.712;4.800;2023-07-29T02:28:33;21.60;5.10
21646;DHT22;10984;45.712;4.800;2023-07-29T02:34:03;21.50;11.10
21646;DHT22;10984;45.712;4.800;2023-07-29T02:36:29;21.50;13.00
21646;DHT22;10984;45.712;4.800;2023-07-29T02:38:55;21.40;17.90
21646;DHT22;10984;45.712;4.800;2023-07-29T02:41:20;21.50;17.90
21646;DHT22;10984;45.712;4.800;2023-07-29T02:44:05;21.40;19.10
21646;DHT22;10984;45.712;4.800;2023-07-29T02:46:30;21.40;18.00
21646;DHT22;10984;45.712;4.800;2023-07-29T02:48:56;21.40;21.00
21646;DHT22;10984;45.712;4.800;2023-07-29T02:51:22;21.30;25.80
21646;DHT22;10984;45.712;4.800;2023-07-29T02:53:47;21.30;24.50
21646;DHT22;10984;45.712;4.800;2023-07-29T02:56:13;21.30;22.80
21646;DHT22;10984;45.712;4.800;2023-07-29T02:58:39;21.30;19.00
21646;DHT22;10984;45.712;4.800;2023-07-29T03:01:05;21.30;20.60
21646;DHT22;10984;45.712;4.800;2023-07-29T03:03:32;21.30;10.20
21646;DHT22;10984;45.712;4.800;2023-07-29T03:06:16;21.20;11.70
21646;DHT22;10984;45.712;4.800;2023-07-29T03:08:42;21.20;9.20
21646;DHT22;10984;45.712;4.800;2023-07-29T03:11:10;21.20;9.80
21646;DHT22;10984;45.712;4.800;2023-07-29T03:13:36;21.20;6.90
21646;DHT22;10984;45.712;4.800;2023-07-29T03:16:20;21.10;1.70
21646;DHT22;10984;45.712;4.800;2023-07-29T03:18:48;21.10;1.00
21646;DHT22;10984;45.712;4.800;2023-07-29T03:21:14;21.10;1.00
21646;DHT22;10984;45.712;4.800;2023-07-29T03:23:40;21.00;1.00
21646;DHT22;10984;45.712;4.800;2023-07-29T03:26:05;21.00;1.00
21646;DHT22;10984;45.712;4.800;2023-07-29T03:28:37;21.00;1.00
21646;DHT22;10984;45.712;4.800;2023-07-29T03:31:03;20.90;1.00
21646;DHT22;10984;45.712;4.800;2023-07-29T03:33:29;20.90;1.00
21646;DHT22;10984;45.712;4.800;2023-07-29T03:35:55;20.90;1.00
21646;DHT22;10984;45.712;4.800;2023-07-29T03:38:21;20.90;1.00
21646;DHT22;10984;45.712;4.800;2023-07-29T03:40:46;20.90;1.00
21646;DHT22;10984;45.712;4.800;2023-07-29T03:43:12;20.90;1.00
21646;DHT22;10984;45.712;4.800;2023-07-29T03:45:39;20.80;1.00
21646;DHT22;10984;45.712;4.800;2023-07-29T03:48:05;20.90;1.00
21646;DHT22;10984;45.712;4.800;2023-07-29T03:50:34;20.80;1.00
21646;DHT22;10984;45.712;4.800;2023-07-29T03:53:01;20.70;1.00
21646;DHT22;10984;45.712;4.800;2023-07-29T03:55:27;20.70;1.00
21646;DHT22;10984;45.712;4.800;2023-07-29T03:57:52;20.70;1.00
21646;DHT22;10984;45.712;4.800;2023-07-29T04:00:18;20.70;1.40
21646;DHT22;10984;45.712;4.800;2023-07-29T04:02:44;20.70;4.80
21646;DHT22;10984;45.712;4.800;2023-07-29T04:05:11;20.70;10.30
21646;DHT22;10984;45.712;4.800;2023-07-29T04:07:37;20.70;18.40
21646;DHT22;10984;45.712;4.800;2023-07-29T04:10:03;20.70;20.20
21646;DHT22;10984;45.712;4.800;2023-07-29T04:12:30;20.70;26.00
21646;DHT22;10984;45.712;4.800;2023-07-29T04:14:55;20.70;30.50
21646;DHT22;10984;45.712;4.800;2023-07-29T04:17:21;20.60;36.20
21646;DHT22;10984;45.712;4.800;2023-07-29T04:19:47;20.70;37.30
21646;DHT22;10984;45.712;4.800;2023-07-29T04:22:12;20.70;39.30
21646;DHT22;10984;45.712;4.800;2023-07-29T04:24:38;20.70;42.90
21646;DHT22;10984;45.712;4.800;2023-07-29T04:27:04;20.70;47.50
21646;DHT22;10984;45.712;4.800;2023-07-29T04:29:30;20.70;49.20
21646;DHT22;10984;45.712;4.800;2023-07-29T04:31:56;20.70;51.90
21646;DHT22;10984;45.712;4.800;2023-07-29T04:34:21;20.70;52.50
21646;DHT22;10984;45.712;4.800;2023-07-29T04:36:47;20.70;54.50
21646;DHT22;10984;45.712;4.800;2023-07-29T04:39:13;20.80;55.30
21646;DHT22;10984;45.712;4.800;2023-07-29T04:41:39;20.80;56.90
21646;DHT22;10984;45.712;4.800;2023-07-29T04:44:05;20.80;54.00
21646;DHT22;10984;45.712;4.800;2023-07-29T04:46:31;21.00;48.20
21646;DHT22;10984;45.712;4.800;2023-07-29T04:48:56;21.10;47.00
21646;DHT22;10984;45.712;4.800;2023-07-29T04:51:24;21.10;44.30
21646;DHT22;10984;45.712;4.800;2023-07-29T04:53:50;21.10;41.30
21646;DHT22;10984;45.712;4.800;2023-07-29T04:56:15;21.10;44.60
21646;DHT22;10984;45.712;4.800;2023-07-29T04:58:41;21.20;39.40
21646;DHT22;10984;45.712;4.800;2023-07-29T05:01:07;21.40;34.90
21646;DHT22;10984;45.712;4.800;2023-07-29T05:03:32;21.70;22.90
21646;DHT22;10984;45.712;4.800;2023-07-29T05:05:58;21.90;1.00
21646;DHT22;10984;45.712;4.800;2023-07-29T05:08:25;22.00;1.00
21646;DHT22;10984;45.712;4.800;2023-07-29T05:10:52;21.90;1.00
21646;DHT22;10984;45.712;4.800;2023-07-29T05:13:18;21.80;1.00
21646;DHT22;10984;45.712;4.800;2023-07-29T05:15:44;21.70;3.10
21646;DHT22;10984;45.712;4.800;2023-07-29T05:18:09;21.60;9.10
21646;DHT22;10984;45.712;4.800;2023-07-29T05:20:35;21.60;9.90
21646;DHT22;10984;45.712;4.800;2023-07-29T05:23:01;21.60;10.60
21646;DHT22;10984;45.712;4.800;2023-07-29T05:25:27;21.60;9.60
21646;DHT22;10984;45.712;4.800;2023-07-29T05:27:52;21.70;11.90
21646;DHT22;10984;45.712;4.800;2023-07-29T05:30:18;21.80;1.00
21646;DHT22;10984;45.712;4.800;2023-07-29T05:32:44;21.90;3.30
21646;DHT22;10984;45.712;4.800;2023-07-29T05:35:10;22.00;1.00
21646;DHT22;10984;45.712;4.800;2023-07-29T05:37:38;22.10;1.00
21646;DHT22;10984;45.712;4.800;2023-07-29T05:40:06;22.30;1.00
21646;DHT22;10984;45.712;4.800;2023-07-29T05:42:33;22.60;1.00
21646;DHT22;10984;45.712;4.800;2023-07-29T05:44:59;22.60;1.00
21646;DHT22;10984;45.712;4.800;2023-07-29T05:47:24;22.70;1.00
21646;DHT22;10984;45.712;4.800;2023-07-29T05:49:50;22.90;1.00
21646;DHT22;10984;45.712;4.800;2023-07-29T05:52:16;23.00;1.00
21646;DHT22;10984;45.712;4.800;2023-07-29T05:54:41;23.10;1.00
21646;DHT22;10984;45.712;4.800;2023-07-29T05:57:09;23.20;1.00
21646;DHT22;10984;45.712;4.800;2023-07-29T05:59:35;23.10;1.00
21646;DHT22;10984;45.712;4.800;2023-07-29T06:02:01;23.20;1.00
21646;DHT22;10984;45.712;4.800;2023-07-29T06:04:26;23.10;1.00
21646;DHT22;10984;45.712;4.800;2023-07-29T06:06:52;23.00;1.00
21646;DHT22;10984;45.712;4.800;2023-07-29T06:09:18;22.80;1.00
21646;DHT22;10984;45.712;4.800;2023-07-29T06:11:43;22.60;1.00
21646;DHT22;10984;45.712;4.800;2023-07-29T06:14:09;22.70;1.00
21646;DHT22;10984;45.712;4.800;2023-07-29T06:16:35;22.60;1.00
21646;DHT22;10984;45.712;4.800;2023-07-29T06:19:00;22.50;1.00
21646;DHT22;10984;45.712;4.800;2023-07-29T06:21:26;22.20;1.00
21646;DHT22;10984;45.712;4.800;2023-07-29T06:23:51;21.90;9.20
21646;DHT22;10984;45.712;4.800;2023-07-29T06:26:17;21.80;34.60
21646;DHT22;10984;45.712;4.800;2023-07-29T06:28:43;21.70;43.50
21646;DHT22;10984;45.712;4.800;2023-07-29T06:31:09;21.70;44.50
21646;DHT22;10984;45.712;4.800;2023-07-29T06:33:34;21.70;39.90
21646;DHT22;10984;45.712;4.800;2023-07-29T06:36:00;21.60;38.20
21646;DHT22;10984;45.712;4.800;2023-07-29T06:38:25;21.50;20.40
21646;DHT22;10984;45.712;4.800;2023-07-29T06:40:51;21.40;25.50
21646;DHT22;10984;45.712;4.800;2023-07-29T06:43:17;21.30;62.10
21646;DHT22;10984;45.712;4.800;2023-07-29T06:45:43;21.20;90.60
21646;DHT22;10984;45.712;4.800;2023-07-29T06:48:09;21.20;99.90
21646;DHT22;10984;45.712;4.800;2023-07-29T06:50:34;21.20;99.90
21646;DHT22;10984;45.712;4.800;2023-07-29T06:53:00;21.10;58.60
21646;DHT22;10984;45.712;4.800;2023-07-29T06:55:25;21.10;99.90
21646;DHT22;10984;45.712;4.800;2023-07-29T06:57:51;21.00;99.90
21646;DHT22;10984;45.712;4.800;2023-07-29T07:00:17;21.00;99.90
21646;DHT22;10984;45.712;4.800;2023-07-29T07:02:43;21.00;99.90
21646;DHT22;10984;45.712;4.800;2023-07-29T07:05:09;20.90;99.90
21646;DHT22;10984;45.712;4.800;2023-07-29T07:07:34;20.80;99.90
21646;DHT22;10984;45.712;4.800;2023-07-29T07:10:00;20.80;99.90
21646;DHT22;10984;45.712;4.800;2023-07-29T07:12:26;21.00;99.90
21646;DHT22;10984;45.712;4.800;2023-07-29T07:14:51;21.10;99.90
21646;DHT22;10984;45.712;4.800;2023-07-29T07:17:17;21.30;99.90
21646;DHT22;10984;45.712;4.800;2023-07-29T07:19:43;21.30;99.90
21646;DHT22;10984;45.712;4.800;2023-07-29T07:22:09;21.40;99.90
21646;DHT22;10984;45.712;4.800;2023-07-29T07:24:34;21.40;99.90
21646;DHT22;10984;45.712;4.800;2023-07-29T07:27:00;21.70;99.90
21646;DHT22;10984;45.712;4.800;2023-07-29T07:29:26;21.90;99.90
21646;DHT22;10984;45.712;4.800;2023-07-29T07:31:53;22.10;99.90
21646;DHT22;10984;45.712;4.800;2023-07-29T07:34:19;22.20;99.90
21646;DHT22;10984;45.712;4.800;2023-07-29T07:36:45;22.30;99.90
21646;DHT22;10984;45.712;4.800;2023-07-29T07:39:10;22.20;99.90
21646;DHT22;10984;45.712;4.800;2023-07-29T07:41:36;22.30;99.90
21646;DHT22;10984;45.712;4.800;2023-07-29T07:44:02;22.40;99.90
21646;DHT22;10984;45.712;4.800;2023-07-29T07:46:28;22.50;99.90
21646;DHT22;10984;45.712;4.800;2023-07-29T07:48:54;22.70;99.90
21646;DHT22;10984;45.712;4.800;2023-07-29T07:51:20;23.00;93.80
21646;DHT22;10984;45.712;4.800;2023-07-29T07:53:45;23.10;42.70
21646;DHT22;10984;45.712;4.800;2023-07-29T07:56:11;23.30;2.20
21646;DHT22;10984;45.712;4.800;2023-07-29T07:58:37;23.40;10.30
21646;DHT22;10984;45.712;4.800;2023-07-29T08:01:22;23.40;1.00
21646;DHT22;10984;45.712;4.800;2023-07-29T08:03:47;23.30;1.00
21646;DHT22;10984;45.712;4.800;2023-07-29T08:06:13;23.30;1.00
21646;DHT22;10984;45.712;4.800;2023-07-29T08:08:39;23.40;1.00
21646;DHT22;10984;45.712;4.800;2023-07-29T08:11:05;23.60;1.00
21646;DHT22;10984;45.712;4.800;2023-07-29T08:13:30;23.70;1.00
21646;DHT22;10984;45.712;4.800;2023-07-29T08:15:56;23.70;1.00
21646;DHT22;10984;45.712;4.800;2023-07-29T08:18:22;23.80;1.00
21646;DHT22;10984;45.712;4.800;2023-07-29T08:21:06;23.80;1.00
21646;DHT22;10984;45.712;4.800;2023-07-29T08:23:34;23.70;1.00
21646;DHT22;10984;45.712;4.800;2023-07-29T08:26:01;23.70;1.00
21646;DHT22;10984;45.712;4.800;2023-07-29T08:28:38;23.50;1.00
21646;DHT22;10984;45.712;4.800;2023-07-29T08:31:04;23.40;1.00
21646;DHT22;10984;45.712;4.800;2023-07-29T08:33:31;23.30;7.80
21646;DHT22;10984;45.712;4.800;2023-07-29T08:35:58;23.10;10.50
21646;DHT22;10984;45.712;4.800;2023-07-29T08:38:24;22.90;43.60
21646;DHT22;10984;45.712;4.800;2023-07-29T08:46:22;22.60;11.50
21646;DHT22;10984;45.712;4.800;2023-07-29T08:48:48;22.60;24.90
21646;DHT22;10984;45.712;4.800;2023-07-29T08:51:14;22.60;42.10
21646;DHT22;10984;45.712;4.800;2023-07-29T08:53:41;22.50;20.30
21646;DHT22;10984;45.712;4.800;2023-07-29T08:56:07;22.50;42.30
21646;DHT22;10984;45.712;4.800;2023-07-29T08:58:33;22.60;83.20
21646;DHT22;10984;45.712;4.800;2023-07-29T09:01:00;22.50;95.10
21646;DHT22;10984;45.712;4.800;2023-07-29T09:03:26;22.60;99.90
21646;DHT22;10984;45.712;4.800;2023-07-29T09:05:53;22.60;99.90
21646;DHT22;10984;45.712;4.800;2023-07-29T09:08:20;22.60;99.90
21646;DHT22;10984;45.712;4.800;2023-07-29T09:10:47;22.60;99.90
21646;DHT22;10984;45.712;4.800;2023-07-29T09:13:13;22.60;99.90
21646;DHT22;10984;45.712;4.800;2023-07-29T09:15:42;22.60;99.90
21646;DHT22;10984;45.712;4.800;2023-07-29T09:18:11;22.60;99.90
21646;DHT22;10984;45.712;4.800;2023-07-29T09:20:38;22.50;99.90
21646;DHT22;10984;45.712;4.800;2023-07-29T09:23:08;22.50;99.90
21646;DHT22;10984;45.712;4.800;2023-07-29T09:25:36;22.50;99.90
21646;DHT22;10984;45.712;4.800;2023-07-29T09:30:54;22.40;99.90
21646;DHT22;10984;45.712;4.800;2023-07-29T09:33:20;22.30;99.90
21646;DHT22;10984;45.712;4.800;2023-07-29T09:35:47;22.30;99.90
21646;DHT22;10984;45.712;4.800;2023-07-29T09:38:15;22.10;99.90
21646;DHT22;10984;45.712;4.800;2023-07-29T09:40:41;22.00;99.90
21646;DHT22;10984;45.712;4.800;2023-07-29T09:43:09;21.80;99.90
21646;DHT22;10984;45.712;4.800;2023-07-29T09:45:37;21.90;99.90
21646;DHT22;10984;45.712;4.800;2023-07-29T09:48:04;22.00;99.90
21646;DHT22;10984;45.712;4.800;2023-07-29T09:50:35;22.00;99.90
21646;DHT22;10984;45.712;4.800;2023-07-29T09:53:02;22.00;99.90
21646;DHT22;10984;45.712;4.800;2023-07-29T09:55:32;22.10;99.90
21646;DHT22;10984;45.712;4.800;2023-07-29T09:58:00;22.20;99.90
21646;DHT22;10984;45.712;4.800;2023-07-29T10:00:30;22.20;99.90
21646;DHT22;10984;45.712;4.800;2023-07-29T10:02:58;22.30;99.90
21646;DHT22;10984;45.712;4.800;2023-07-29T10:05:43;22.40;99.90
21646;DHT22;10984;45.712;4.800;2023-07-29T10:08:11;22.50;99.90
21646;DHT22;10984;45.712;4.800;2023-07-29T10:10:39;22.50;99.90
21646;DHT22;10984;45.712;4.800;2023-07-29T10:13:07;22.40;99.90
21646;DHT22;10984;45.712;4.800;2023-07-29T10:15:33;22.20;99.90
21646;DHT22;10984;45.712;4.800;2023-07-29T10:18:01;22.20;99.90
21646;DHT22;10984;45.712;4.800;2023-07-29T10:20:30;22.40;99.90
21646;DHT22;10984;45.712;4.800;2023-07-29T10:23:00;22.40;99.90
21646;DHT22;10984;45.712;4.800;2023-07-29T10:28:18;22.60;99.90
21646;DHT22;10984;45.712;4.800;2023-07-29T10:30:46;22.70;99.90
21646;DHT22;10984;45.712;4.800;2023-07-29T10:33:14;22.70;99.90
21646;DHT22;10984;45.712;4.800;2023-07-29T10:35:41;22.80;99.90
21646;DHT22;10984;45.712;4.800;2023-07-29T10:38:08;23.00;99.90
21646;DHT22;10984;45.712;4.800;2023-07-29T10:40:53;23.40;99.90
21646;DHT22;10984;45.712;4.800;2023-07-29T10:43:43;23.80;52.40
21646;DHT22;10984;45.712;4.800;2023-07-29T10:46:28;24.20;29.00
21646;DHT22;10984;45.712;4.800;2023-07-29T10:48:56;24.50;1.00
21646;DHT22;10984;45.712;4.800;2023-07-29T10:51:41;24.70;1.00
21646;DHT22;10984;45.712;4.800;2023-07-29T10:54:26;24.70;1.00
21646;DHT22;10984;45.712;4.800;2023-07-29T10:56:56;25.10;1.00
21646;DHT22;10984;45.712;4.800;2023-07-29T11:05:51;25.40;1.00
21646;DHT22;10984;45.712;4.800;2023-07-29T11:11:21;25.50;1.00
21646;DHT22;10984;45.712;4.800;2023-07-29T11:13:47;25.70;1.00
21646;DHT22;10984;45.712;4.800;2023-07-29T11:16:16;25.70;1.00
21646;DHT22;10984;45.712;4.800;2023-07-29T11:18:44;25.40;1.00
21646;DHT22;10984;45.712;4.800;2023-07-29T11:21:11;25.10;1.00
21646;DHT22;10984;45.712;4.800;2023-07-29T11:23:40;24.90;1.00
21646;DHT22;10984;45.712;4.800;2023-07-29T11:26:07;24.90;1.00
21646;DHT22;10984;45.712;4.800;2023-07-29T11:28:38;24.70;1.00
21646;DHT22;10984;45.712;4.800;2023-07-29T11:31:06;24.90;1.00
21646;DHT22;10984;45.712;4.800;2023-07-29T11:33:32;25.00;1.00
21646;DHT22;10984;45.712;4.800;2023-07-29T11:35:58;25.10;1.00
21646;DHT22;10984;45.712;4.800;2023-07-29T11:38:25;25.30;1.00
21646;DHT22;10984;45.712;4.800;2023-07-29T11:41:10;25.10;1.00
21646;DHT22;10984;45.712;4.800;2023-07-29T11:43:36;25.10;1.00
21646;DHT22;10984;45.712;4.800;2023-07-29T11:46:03;25.20;1.00
21646;DHT22;10984;45.712;4.800;2023-07-29T11:48:31;25.20;1.00
21646;DHT22;10984;45.712;4.800;2023-07-29T11:50:58;25.30;1.00
21646;DHT22;10984;45.712;4.800;2023-07-29T11:53:43;25.50;1.00
21646;DHT22;10984;45.712;4.800;2023-07-29T11:56:11;25.60;1.00
21646;DHT22;10984;45.712;4.800;2023-07-29T11:58:39;25.60;1.00
21646;DHT22;10984;45.712;4.800;2023-07-29T12:01:05;25.70;1.00
21646;DHT22;10984;45.712;4.800;2023-07-29T12:03:31;25.80;1.00
21646;DHT22;10984;45.712;4.800;2023-07-29T12:05:58;25.80;1.00
21646;DHT22;10984;45.712;4.800;2023-07-29T12:08:24;26.00;1.00
21646;DHT22;10984;45.712;4.800;2023-07-29T12:10:51;26.00;1.00
21646;DHT22;10984;45.712;4.800;2023-07-29T12:13:18;26.10;1.00
21646;DHT22;10984;45.712;4.800;2023-07-29T12:15:44;26.00;1.00
21646;DHT22;10984;45.712;4.800;2023-07-29T12:18:12;25.90;1.00
21646;DHT22;10984;45.712;4.800;2023-07-29T12:20:38;26.00;1.00
21646;DHT22;10984;45.712;4.800;2023-07-29T12:23:05;26.00;1.00
21646;DHT22;10984;45.712;4.800;2023-07-29T12:25:32;26.00;1.00
21646;DHT22;10984;45.712;4.800;2023-07-29T12:28:18;25.90;1.00
21646;DHT22;10984;45.712;4.800;2023-07-29T12:30:44;25.80;1.00
21646;DHT22;10984;45.712;4.800;2023-07-29T12:33:10;25.60;1.00
21646;DHT22;10984;45.712;4.800;2023-07-29T12:35:37;25.70;1.00
21646;DHT22;10984;45.712;4.800;2023-07-29T12:38:03;25.80;1.00
21646;DHT22;10984;45.712;4.800;2023-07-29T12:40:30;25.90;99.90
21646;DHT22;10984;45.712;4.800;2023-07-29T12:42:57;25.80;99.90
21646;DHT22;10984;45.712;4.800;2023-07-29T12:45:24;25.80;99.90
21646;DHT22;10984;45.712;4.800;2023-07-29T12:47:52;25.80;1.00
21646;DHT22;10984;45.712;4.800;2023-07-29T12:50:19;25.80;1.00
21646;DHT22;10984;45.712;4.800;2023-07-29T12:52:46;25.70;99.90
21646;DHT22;10984;45.712;4.800;2023-07-29T12:55:13;25.70;99.90
21646;DHT22;10984;45.712;4.800;2023-07-29T12:57:41;25.70;99.90
21646;DHT22;10984;45.712;4.800;2023-07-29T13:00:09;25.70;99.90
21646;DHT22;10984;45.712;4.800;2023-07-29T13:02:36;25.70;99.90
21646;DHT22;10984;45.712;4.800;2023-07-29T13:05:03;25.70;99.90
21646;DHT22;10984;45.712;4.800;2023-07-29T13:07:29;25.70;99.90
21646;DHT22;10984;45.712;4.800;2023-07-29T13:09:56;25.70;99.90
21646;DHT22;10984;45.712;4.800;2023-07-29T13:12:22;25.80;99.90
21646;DHT22;10984;45.712;4.800;2023-07-29T13:14:48;25.90;99.90
21646;DHT22;10984;45.712;4.800;2023-07-29T13:17:15;26.20;99.90
21646;DHT22;10984;45.712;4.800;2023-07-29T13:19:41;26.30;99.90
21646;DHT22;10984;45.712;4.800;2023-07-29T13:22:07;26.50;99.90
21646;DHT22;10984;45.712;4.800;2023-07-29T13:24:34;26.40;99.90
21646;DHT22;10984;45.712;4.800;2023-07-29T13:27:00;26.60;99.90
21646;DHT22;10984;45.712;4.800;2023-07-29T13:29:26;26.60;99.90
21646;DHT22;10984;45.712;4.800;2023-07-29T13:31:53;26.60;99.90
21646;DHT22;10984;45.712;4.800;2023-07-29T13:34:19;26.50;99.90
21646;DHT22;10984;45.712;4.800;2023-07-29T13:36:45;26.50;99.90
21646;DHT22;10984;45.712;4.800;2023-07-29T13:39:12;26.50;99.90
21646;DHT22;10984;45.712;4.800;2023-07-29T13:41:38;26.30;99.90
21646;DHT22;10984;45.712;4.800;2023-07-29T13:44:05;26.30;99.90
21646;DHT22;10984;45.712;4.800;2023-07-29T13:46:31;26.30;99.90
21646;DHT22;10984;45.712;4.800;2023-07-29T13:48:58;26.30;1.00
21646;DHT22;10984;45.712;4.800;2023-07-29T13:51:24;26.50;1.00
21646;DHT22;10984;45.712;4.800;2023-07-29T13:53:50;26.60;1.00
21646;DHT22;10984;45.712;4.800;2023-07-29T13:56:17;26.60;99.90
21646;DHT22;10984;45.712;4.800;2023-07-29T13:58:43;26.30;99.90
21646;DHT22;10984;45.712;4.800;2023-07-29T14:01:10;26.30;1.00
21646;DHT22;10984;45.712;4.800;2023-07-29T14:03:36;26.40;1.00
21646;DHT22;10984;45.712;4.800;2023-07-29T14:06:02;26.40;1.00
21646;DHT22;10984;45.712;4.800;2023-07-29T14:08:28;26.30;1.00
21646;DHT22;10984;45.712;4.800;2023-07-29T14:10:55;26.50;1.00
21646;DHT22;10984;45.712;4.800;2023-07-29T14:13:21;26.60;1.00
21646;DHT22;10984;45.712;4.800;2023-07-29T14:15:48;26.60;1.00
21646;DHT22;10984;45.712;4.800;2023-07-29T14:18:14;26.50;1.00
21646;DHT22;10984;45.712;4.800;2023-07-29T14:20:41;26.60;99.90
21646;DHT22;10984;45.712;4.800;2023-07-29T14:23:07;26.70;1.00
21646;DHT22;10984;45.712;4.800;2023-07-29T14:25:33;26.80;99.90
21646;DHT22;10984;45.712;4.800;2023-07-29T14:27:59;26.80;99.90
21646;DHT22;10984;45.712;4.800;2023-07-29T14:30:26;26.90;99.90
21646;DHT22;10984;45.712;4.800;2023-07-29T14:32:52;26.70;99.90
21646;DHT22;10984;45.712;4.800;2023-07-29T14:35:19;26.80;99.90
21646;DHT22;10984;45.712;4.800;2023-07-29T14:37:45;26.90;99.90
21646;DHT22;10984;45.712;4.800;2023-07-29T14:40:11;27.00;99.90
21646;DHT22;10984;45.712;4.800;2023-07-29T14:42:40;26.90;99.90
21646;DHT22;10984;45.712;4.800;2023-07-29T14:45:06;27.00;99.90
21646;DHT22;10984;45.712;4.800;2023-07-29T14:47:33;27.00;99.90
21646;DHT22;10984;45.712;4.800;2023-07-29T14:50:01;26.90;99.90
21646;DHT22;10984;45.712;4.800;2023-07-29T14:52:27;27.00;99.90
21646;DHT22;10984;45.712;4.800;2023-07-29T14:54:53;27.10;99.90
21646;DHT22;10984;45.712;4.800;2023-07-29T14:57:20;27.10;99.90
21646;DHT22;10984;45.712;4.800;2023-07-29T14:59:47;27.00;99.90
21646;DHT22;10984;45.712;4.800;2023-07-29T15:02:13;27.00;99.90
21646;DHT22;10984;45.712;4.800;2023-07-29T15:04:40;27.00;99.90
21646;DHT22;10984;45.712;4.800;2023-07-29T15:07:06;27.10;99.90
21646;DHT22;10984;45.712;4.800;2023-07-29T15:09:32;27.00;99.90
21646;DHT22;10984;45.712;4.800;2023-07-29T15:11:59;26.90;99.90
21646;DHT22;10984;45.712;4.800;2023-07-29T15:14:25;26.90;99.90
21646;DHT22;10984;45.712;4.800;2023-07-29T15:16:51;26.70;99.90
21646;DHT22;10984;45.712;4.800;2023-07-29T15:19:18;26.60;99.90
21646;DHT22;10984;45.712;4.800;2023-07-29T15:21:44;26.60;99.90
21646;DHT22;10984;45.712;4.800;2023-07-29T15:24:11;26.60;99.90
21646;DHT22;10984;45.712;4.800;2023-07-29T15:26:37;26.70;99.90
21646;DHT22;10984;45.712;4.800;2023-07-29T15:29:04;26.70;99.90
21646;DHT22;10984;45.712;4.800;2023-07-29T15:34:17;27.00;99.90
21646;DHT22;10984;45.712;4.800;2023-07-29T15:36:44;27.10;99.90
21646;DHT22;10984;45.712;4.800;2023-07-29T15:39:10;27.10;99.90
21646;DHT22;10984;45.712;4.800;2023-07-29T15:41:36;27.20;99.90
21646;DHT22;10984;45.712;4.800;2023-07-29T15:44:03;26.90;99.90
21646;DHT22;10984;45.712;4.800;2023-07-29T15:46:29;27.00;99.90
21646;DHT22;10984;45.712;4.800;2023-07-29T15:48:55;26.80;99.90
21646;DHT22;10984;45.712;4.800;2023-07-29T15:51:26;26.80;99.90
21646;DHT22;10984;45.712;4.800;2023-07-29T15:53:52;26.60;99.90
21646;DHT22;10984;45.712;4.800;2023-07-29T15:56:19;26.50;99.90
21646;DHT22;10984;45.712;4.800;2023-07-29T15:58:46;26.50;99.90
21646;DHT22;10984;45.712;4.800;2023-07-29T16:01:12;26.60;99.90
21646;DHT22;10984;45.712;4.800;2023-07-29T16:03:39;26.60;99.90
21646;DHT22;10984;45.712;4.800;2023-07-29T16:06:07;26.80;99.90
21646;DHT22;10984;45.712;4.800;2023-07-29T16:08:33;26.90;99.90
21646;DHT22;10984;45.712;4.800;2023-07-29T16:11:00;27.00;99.90
21646;DHT22;10984;45.712;4.800;2023-07-29T16:13:26;27.00;99.90
21646;DHT22;10984;45.712;4.800;2023-07-29T16:15:52;26.80;99.90
21646;DHT22;10984;45.712;4.800;2023-07-29T16:18:19;26.60;99.90